sensor_id;sensor_type;location;lat;lon;timestamp;temperature;humidity
23160;DHT22;11748;50.844;4.396;2022-11-14T00:02:04;10.40;99.90
23160;DHT22;11748;50.844;4.396;2022-11-14T00:04:30;10.30;99.90
23160;DHT22;11748;50.844;4.396;2022-11-14T00:06:55;10.30;99.90
23160;DHT22;11748;50.844;4.396;2022-11-14T00:09:26;10.30;99.90
23160;DHT22;11748;50.844;4.396;2022-11-14T00:11:52;10.30;99.90
23160;DHT22;11748;50.844;4.396;2022-11-14T00:14:18;10.30;99.90
23160;DHT22;11748;50.844;4.396;2022-11-14T00:16:45;10.30;99.90
23160;DHT22;11748;50.844;4.396;2022-11-14T00:19:10;10.30;99.90
23160;DHT22;11748;50.844;4.396;2022-11-14T00:21:36;10.30;99.90
23160;DHT22;11748;50.844;4.396;2022-11-14T00:24:02;10.40;99.90
23160;DHT22;11748;50.844;4.396;2022-11-14T00:26:28;10.30;99.90
23160;DHT22;11748;50.844;4.396;2022-11-14T00:28:55;10.30;99.90
23160;DHT22;11748;50.844;4.396;2022-11-14T00:31:21;10.30;99.90
23160;DHT22;11748;50.844;4.396;2022-11-14T00:33:47;10.30;99.90
23160;DHT22;11748;50.844;4.396;2022-11-14T00:36:13;10.30;99.90
23160;DHT22;11748;50.844;4.396;2022-11-14T00:38:39;10.30;99.90
23160;DHT22;11748;50.844;4.396;2022-11-14T00:41:05;10.30;99.90
23160;DHT22;11748;50.844;4.396;2022-11-14T00:43:30;10.30;99.90
23160;DHT22;11748;50.844;4.396;2022-11-14T00:45:56;10.30;99.90
23160;DHT22;11748;50.844;4.396;2022-11-14T00:48:22;10.30;99.90
23160;DHT22;11748;50.844;4.396;2022-11-14T00:50:48;10.30;99.90
23160;DHT22;11748;50.844;4.396;2022-11-14T00:53:14;10.30;99.90
23160;DHT22;11748;50.844;4.396;2022-11-14T00:55:42;10.20;99.90
23160;DHT22;11748;50.844;4.396;2022-11-14T00:58:08;10.20;99.90
23160;DHT22;11748;50.844;4.396;2022-11-14T01:00:35;10.20;99.90
23160;DHT22;11748;50.844;4.396;2022-11-14T01:03:01;10.20;99.90
23160;DHT22;11748;50.844;4.396;2022-11-14T01:05:27;10.20;99.90
23160;DHT22;11748;50.844;4.396;2022-11-14T01:07:53;10.30;99.90
23160;DHT22;11748;50.844;4.396;2022-11-14T01:10:19;10.20;99.90
23160;DHT22;11748;50.844;4.396;2022-11-14T01:12:45;10.20;99.90
23160;DHT22;11748;50.844;4.396;2022-11-14T01:15:12;10.20;99.90
23160;DHT22;11748;50.844;4.396;2022-11-14T01:17:38;10.20;99.90
23160;DHT22;11748;50.844;4.396;2022-11-14T01:20:04;10.20;99.90
23160;DHT22;11748;50.844;4.396;2022-11-14T01:22:31;10.20;99.90
23160;DHT22;11748;50.844;4.396;2022-11-14T01:24:57;10.20;99.90
23160;DHT22;11748;50.844;4.396;2022-11-14T01:27:24;10.20;99.90
23160;DHT22;11748;50.844;4.396;2022-11-14T01:29:49;10.20;99.90
23160;DHT22;11748;50.844;4.396;2022-11-14T01:32:15;10.10;99.90
23160;DHT22;11748;50.844;4.396;2022-11-14T01:34:41;10.10;99.90
23160;DHT22;11748;50.844;4.396;2022-11-14T01:37:06;10.00;99.90
23160;DHT22;11748;50.844;4.396;2022-11-14T01:39:32;10.00;99.90
23160;DHT22;11748;50.844;4.396;2022-11-14T01:41:58;10.00;99.90
23160;DHT22;11748;50.844;4.396;2022-11-14T01:44:56;10.00;99.90
23160;DHT22;11748;50.844;4.396;2022-11-14T01:47:28;10.00;99.90
23160;DHT22;11748;50.844;4.396;2022-11-14T01:49:59;10.00;99.90
23160;DHT22;11748;50.844;4.396;2022-11-14T01:52:37;10.00;99.90
23160;DHT22;11748;50.844;4.396;2022-11-14T01:55:06;10.00;99.90
23160;DHT22;11748;50.844;4.396;2022-11-14T01:57:43;10.00;99.90
23160;DHT22;11748;50.844;4.396;2022-11-14T02:00:11;10.00;99.90
23160;DHT22;11748;50.844;4.396;2022-11-14T02:02:37;10.00;99.90
23160;DHT22;11748;50.844;4.396;2022-11-14T02:05:07;9.90;99.90
23160;DHT22;11748;50.844;4.396;2022-11-14T02:07:38;9.80;99.90
23160;DHT22;11748;50.844;4.396;2022-11-14T02:10:08;9.90;99.90
23160;DHT22;11748;50.844;4.396;2022-11-14T02:12:35;9.80;99.90
23160;DHT22;11748;50.844;4.396;2022-11-14T02:15:02;9.90;99.90
23160;DHT22;11748;50.844;4.396;2022-11-14T02:17:28;9.90;99.90
23160;DHT22;11748;50.844;4.396;2022-11-14T02:22:36;9.80;99.90
23160;DHT22;11748;50.844;4.396;2022-11-14T02:25:02;9.80;99.90
23160;DHT22;11748;50.844;4.396;2022-11-14T02:27:29;9.80;99.90
23160;DHT22;11748;50.844;4.396;2022-11-14T02:30:07;9.80;99.90
23160;DHT22;11748;50.844;4.396;2022-11-14T02:32:34;9.80;99.90
23160;DHT22;11748;50.844;4.396;2022-11-14T02:34:59;9.80;99.90
23160;DHT22;11748;50.844;4.396;2022-11-14T02:37:25;9.70;99.90
23160;DHT22;11748;50.844;4.396;2022-11-14T02:39:51;9.70;99.90
23160;DHT22;11748;50.844;4.396;2022-11-14T02:42:16;9.70;99.90
23160;DHT22;11748;50.844;4.396;2022-11-14T02:44:43;9.70;99.90
23160;DHT22;11748;50.844;4.396;2022-11-14T02:47:09;9.70;99.90
23160;DHT22;11748;50.844;4.396;2022-11-14T02:49:34;9.70;99.90
23160;DHT22;11748;50.844;4.396;2022-11-14T02:52:00;9.60;99.90
23160;DHT22;11748;50.844;4.396;2022-11-14T02:54:26;9.60;99.90
23160;DHT22;11748;50.844;4.396;2022-11-14T02:56:51;9.60;99.90
23160;DHT22;11748;50.844;4.396;2022-11-14T02:59:17;9.60;99.90
23160;DHT22;11748;50.844;4.396;2022-11-14T03:01:43;9.60;99.90
23160;DHT22;11748;50.844;4.396;2022-11-14T03:04:08;9.60;99.90
23160;DHT22;11748;50.844;4.396;2022-11-14T03:06:34;9.60;99.90
23160;DHT22;11748;50.844;4.396;2022-11-14T03:09:00;9.60;99.90
23160;DHT22;11748;50.844;4.396;2022-11-14T03:11:25;9.60;99.90
23160;DHT22;11748;50.844;4.396;2022-11-14T03:13:51;9.60;99.90
23160;DHT22;11748;50.844;4.396;2022-11-14T03:16:17;9.60;99.90
23160;DHT22;11748;50.844;4.396;2022-11-14T03:18:42;9.60;99.90
23160;DHT22;11748;50.844;4.396;2022-11-14T03:21:14;9.60;99.90
23160;DHT22;11748;50.844;4.396;2022-11-14T03:23:40;9.60;99.90
23160;DHT22;11748;50.844;4.396;2022-11-14T03:26:07;9.50;99.90
23160;DHT22;11748;50.844;4.396;2022-11-14T03:28:34;9.60;99.90
23160;DHT22;11748;50.844;4.396;2022-11-14T03:31:00;9.60;99.90
23160;DHT22;11748;50.844;4.396;2022-11-14T03:33:26;9.60;99.90
23160;DHT22;11748;50.844;4.396;2022-11-14T03:35:52;9.60;99.90
23160;DHT22;11748;50.844;4.396;2022-11-14T03:38:18;9.70;99.90
23160;DHT22;11748;50.844;4.396;2022-11-14T03:40:47;9.70;99.90
23160;DHT22;11748;50.844;4.396;2022-11-14T03:43:13;9.70;99.90
23160;DHT22;11748;50.844;4.396;2022-11-14T03:45:39;9.60;99.90
23160;DHT22;11748;50.844;4.396;2022-11-14T03:48:05;9.60;99.90
23160;DHT22;11748;50.844;4.396;2022-11-14T03:50:31;9.60;99.90
23160;DHT22;11748;50.844;4.396;2022-11-14T03:52:57;9.60;99.90
23160;DHT22;11748;50.844;4.396;2022-11-14T03:55:23;9.60;99.90
23160;DHT22;11748;50.844;4.396;2022-11-14T03:57:48;9.60;99.90
23160;DHT22;11748;50.844;4.396;2022-11-14T04:00:15;9.60;99.90
23160;DHT22;11748;50.844;4.396;2022-11-14T04:02:40;9.60;99.90
23160;DHT22;11748;50.844;4.396;2022-11-14T04:05:07;9.60;99.90
23160;DHT22;11748;50.844;4.396;2022-11-14T04:07:32;9.60;99.90
23160;DHT22;11748;50.844;4.396;2022-11-14T04:09:58;9.60;99.90
23160;DHT22;11748;50.844;4.396;2022-11-14T04:12:24;9.60;99.90
23160;DHT22;11748;50.844;4.396;2022-11-14T04:14:49;9.50;99.90
23160;DHT22;11748;50.844;4.396;2022-11-14T04:17:15;9.50;99.90
23160;DHT22;11748;50.844;4.396;2022-11-14T04:19:41;9.50;99.90
23160;DHT22;11748;50.844;4.396;2022-11-14T04:22:06;9.50;99.90
23160;DHT22;11748;50.844;4.396;2022-11-14T04:24:32;9.40;99.90
23160;DHT22;11748;50.844;4.396;2022-11-14T04:26:58;9.40;99.90
23160;DHT22;11748;50.844;4.396;2022-11-14T04:29:23;9.40;99.90
23160;DHT22;11748;50.844;4.396;2022-11-14T04:31:49;9.40;99.90
23160;DHT22;11748;50.844;4.396;2022-11-14T04:34:15;9.40;99.90
23160;DHT22;11748;50.844;4.396;2022-11-14T04:36:41;9.30;99.90
23160;DHT22;11748;50.844;4.396;2022-11-14T04:39:06;9.30;99.90
23160;DHT22;11748;50.844;4.396;2022-11-14T04:41:32;9.30;99.90
23160;DHT22;11748;50.844;4.396;2022-11-14T04:43:58;9.30;99.90
23160;DHT22;11748;50.844;4.396;2022-11-14T04:46:23;9.30;99.90
23160;DHT22;11748;50.844;4.396;2022-11-14T04:48:49;9.30;99.90
23160;DHT22;11748;50.844;4.396;2022-11-14T04:51:15;9.40;99.90
23160;DHT22;11748;50.844;4.396;2022-11-14T04:53:41;9.40;99.90
23160;DHT22;11748;50.844;4.396;2022-11-14T04:56:07;9.40;99.90
23160;DHT22;11748;50.844;4.396;2022-11-14T04:58:33;9.40;99.90
23160;DHT22;11748;50.844;4.396;2022-11-14T05:00:58;9.30;99.90
23160;DHT22;11748;50.844;4.396;2022-11-14T05:03:24;9.30;99.90
23160;DHT22;11748;50.844;4.396;2022-11-14T05:05:50;9.30;99.90
23160;DHT22;11748;50.844;4.396;2022-11-14T05:08:16;9.20;99.90
23160;DHT22;11748;50.844;4.396;2022-11-14T05:10:42;9.20;99.90
23160;DHT22;11748;50.844;4.396;2022-11-14T05:13:09;9.20;99.90
23160;DHT22;11748;50.844;4.396;2022-11-14T05:15:35;9.20;99.90
23160;DHT22;11748;50.844;4.396;2022-11-14T05:18:00;9.20;99.90
23160;DHT22;11748;50.844;4.396;2022-11-14T05:20:26;9.10;99.90
23160;DHT22;11748;50.844;4.396;2022-11-14T05:22:53;9.20;99.90
23160;DHT22;11748;50.844;4.396;2022-11-14T05:25:19;9.20;99.90
23160;DHT22;11748;50.844;4.396;2022-11-14T05:27:46;9.20;99.90
23160;DHT22;11748;50.844;4.396;2022-11-14T05:30:12;9.20;99.90
23160;DHT22;11748;50.844;4.396;2022-11-14T05:32:37;9.20;99.90
23160;DHT22;11748;50.844;4.396;2022-11-14T05:35:03;9.10;99.90
23160;DHT22;11748;50.844;4.396;2022-11-14T05:37:29;9.10;99.90
23160;DHT22;11748;50.844;4.396;2022-11-14T05:39:55;9.20;99.90
23160;DHT22;11748;50.844;4.396;2022-11-14T05:42:21;9.10;99.90
23160;DHT22;11748;50.844;4.396;2022-11-14T05:44:46;9.10;99.90
23160;DHT22;11748;50.844;4.396;2022-11-14T05:47:12;9.10;99.90
23160;DHT22;11748;50.844;4.396;2022-11-14T05:49:38;9.10;99.90
23160;DHT22;11748;50.844;4.396;2022-11-14T05:52:03;9.10;99.90
23160;DHT22;11748;50.844;4.396;2022-11-14T05:54:29;9.10;99.90
23160;DHT22;11748;50.844;4.396;2022-11-14T05:56:55;9.10;99.90
23160;DHT22;11748;50.844;4.396;2022-11-14T05:59:20;9.10;99.90
23160;DHT22;11748;50.844;4.396;2022-11-14T06:01:46;9.20;99.90
23160;DHT22;11748;50.844;4.396;2022-11-14T06:04:12;9.20;99.90
23160;DHT22;11748;50.844;4.396;2022-11-14T06:06:39;9.20;99.90
23160;DHT22;11748;50.844;4.396;2022-11-14T06:09:05;9.20;99.90
23160;DHT22;11748;50.844;4.396;2022-11-14T06:11:31;9.10;99.90
23160;DHT22;11748;50.844;4.396;2022-11-14T06:13:57;9.10;99.90
23160;DHT22;11748;50.844;4.396;2022-11-14T06:16:23;9.10;99.90
23160;DHT22;11748;50.844;4.396;2022-11-14T06:18:51;9.10;99.90
23160;DHT22;11748;50.844;4.396;2022-11-14T06:21:20;9.00;99.90
23160;DHT22;11748;50.844;4.396;2022-11-14T06:23:46;9.10;99.90
23160;DHT22;11748;50.844;4.396;2022-11-14T06:26:26;9.00;99.90
23160;DHT22;11748;50.844;4.396;2022-11-14T06:28:56;9.10;99.90
23160;DHT22;11748;50.844;4.396;2022-11-14T06:31:23;9.10;99.90
23160;DHT22;11748;50.844;4.396;2022-11-14T06:33:51;9.10;99.90
23160;DHT22;11748;50.844;4.396;2022-11-14T06:36:17;9.00;99.90
23160;DHT22;11748;50.844;4.396;2022-11-14T06:38:43;9.10;99.90
23160;DHT22;11748;50.844;4.396;2022-11-14T06:41:14;9.10;99.90
23160;DHT22;11748;50.844;4.396;2022-11-14T06:43:42;9.10;99.90
23160;DHT22;11748;50.844;4.396;2022-11-14T06:46:11;9.10;99.90
23160;DHT22;11748;50.844;4.396;2022-11-14T06:48:38;9.10;99.90
23160;DHT22;11748;50.844;4.396;2022-11-14T06:51:04;9.10;99.90
23160;DHT22;11748;50.844;4.396;2022-11-14T06:53:34;9.10;99.90
23160;DHT22;11748;50.844;4.396;2022-11-14T06:58:29;8.90;99.90
23160;DHT22;11748;50.844;4.396;2022-11-14T07:00:56;8.90;99.90
23160;DHT22;11748;50.844;4.396;2022-11-14T07:03:22;8.90;99.90
23160;DHT22;11748;50.844;4.396;2022-11-14T07:05:48;8.90;99.90
23160;DHT22;11748;50.844;4.396;2022-11-14T07:08:14;8.90;99.90
23160;DHT22;11748;50.844;4.396;2022-11-14T07:10:40;8.90;99.90
23160;DHT22;11748;50.844;4.396;2022-11-14T07:13:06;8.90;99.90
23160;DHT22;11748;50.844;4.396;2022-11-14T07:15:31;8.90;99.90
23160;DHT22;11748;50.844;4.396;2022-11-14T07:17:58;8.90;99.90
23160;DHT22;11748;50.844;4.396;2022-11-14T07:20:24;8.90;99.90
23160;DHT22;11748;50.844;4.396;2022-11-14T07:22:50;8.90;99.90
23160;DHT22;11748;50.844;4.396;2022-11-14T07:25:16;9.00;99.90
23160;DHT22;11748;50.844;4.396;2022-11-14T07:27:41;9.00;99.90
23160;DHT22;11748;50.844;4.396;2022-11-14T07:30:07;8.90;99.90
23160;DHT22;11748;50.844;4.396;2022-11-14T07:32:33;8.90;99.90
23160;DHT22;11748;50.844;4.396;2022-11-14T07:35:00;8.90;99.90
23160;DHT22;11748;50.844;4.396;2022-11-14T07:37:25;8.80;99.90
23160;DHT22;11748;50.844;4.396;2022-11-14T07:39:51;8.80;99.90
23160;DHT22;11748;50.844;4.396;2022-11-14T07:42:17;8.90;99.90
23160;DHT22;11748;50.844;4.396;2022-11-14T07:44:42;8.90;99.90
23160;DHT22;11748;50.844;4.396;2022-11-14T07:47:08;8.80;99.90
23160;DHT22;11748;50.844;4.396;2022-11-14T07:49:34;8.90;99.90
23160;DHT22;11748;50.844;4.396;2022-11-14T07:51:59;8.90;99.90
23160;DHT22;11748;50.844;4.396;2022-11-14T07:54:25;8.90;99.90
23160;DHT22;11748;50.844;4.396;2022-11-14T07:56:51;9.00;99.90
23160;DHT22;11748;50.844;4.396;2022-11-14T07:59:18;9.00;99.90
23160;DHT22;11748;50.844;4.396;2022-11-14T08:01:44;8.90;99.90
23160;DHT22;11748;50.844;4.396;2022-11-14T08:04:10;8.90;99.90
23160;DHT22;11748;50.844;4.396;2022-11-14T08:06:35;9.00;99.90
23160;DHT22;11748;50.844;4.396;2022-11-14T08:09:01;8.80;99.90
23160;DHT22;11748;50.844;4.396;2022-11-14T08:11:27;8.60;99.90
23160;DHT22;11748;50.844;4.396;2022-11-14T08:14:11;8.60;99.90
23160;DHT22;11748;50.844;4.396;2022-11-14T08:16:49;8.80;99.90
23160;DHT22;11748;50.844;4.396;2022-11-14T08:19:15;8.90;99.90
23160;DHT22;11748;50.844;4.396;2022-11-14T08:21:42;9.10;99.90
23160;DHT22;11748;50.844;4.396;2022-11-14T08:24:08;9.10;99.90
23160;DHT22;11748;50.844;4.396;2022-11-14T08:26:34;9.20;99.90
23160;DHT22;11748;50.844;4.396;2022-11-14T08:29:01;9.00;99.90
23160;DHT22;11748;50.844;4.396;2022-11-14T08:31:27;8.80;99.90
23160;DHT22;11748;50.844;4.396;2022-11-14T08:33:53;8.70;99.90
23160;DHT22;11748;50.844;4.396;2022-11-14T08:36:19;8.80;99.90
23160;DHT22;11748;50.844;4.396;2022-11-14T08:38:44;8.90;99.90
23160;DHT22;11748;50.844;4.396;2022-11-14T08:41:10;8.90;99.90
23160;DHT22;11748;50.844;4.396;2022-11-14T08:43:36;8.90;99.90
23160;DHT22;11748;50.844;4.396;2022-11-14T08:46:03;9.10;99.90
23160;DHT22;11748;50.844;4.396;2022-11-14T08:48:30;9.30;99.90
23160;DHT22;11748;50.844;4.396;2022-11-14T08:51:01;9.30;99.90
23160;DHT22;11748;50.844;4.396;2022-11-14T08:53:27;9.40;99.90
23160;DHT22;11748;50.844;4.396;2022-11-14T08:55:52;9.60;99.90
23160;DHT22;11748;50.844;4.396;2022-11-14T08:58:18;9.60;99.90
23160;DHT22;11748;50.844;4.396;2022-11-14T09:00:44;9.70;99.90
23160;DHT22;11748;50.844;4.396;2022-11-14T09:03:11;9.70;99.90
23160;DHT22;11748;50.844;4.396;2022-11-14T09:05:39;9.70;99.90
23160;DHT22;11748;50.844;4.396;2022-11-14T09:08:04;9.60;99.90
23160;DHT22;11748;50.844;4.396;2022-11-14T09:10:30;9.60;99.90
23160;DHT22;11748;50.844;4.396;2022-11-14T09:12:57;9.60;99.90
23160;DHT22;11748;50.844;4.396;2022-11-14T09:15:23;9.60;99.90
23160;DHT22;11748;50.844;4.396;2022-11-14T09:17:55;9.50;99.90
23160;DHT22;11748;50.844;4.396;2022-11-14T09:20:24;9.60;99.90
23160;DHT22;11748;50.844;4.396;2022-11-14T09:22:51;9.30;99.90
23160;DHT22;11748;50.844;4.396;2022-11-14T09:25:19;9.00;99.90
23160;DHT22;11748;50.844;4.396;2022-11-14T09:27:46;9.00;99.90
23160;DHT22;11748;50.844;4.396;2022-11-14T09:30:13;9.20;99.90
23160;DHT22;11748;50.844;4.396;2022-11-14T09:32:40;9.40;99.90
23160;DHT22;11748;50.844;4.396;2022-11-14T09:35:06;9.40;99.90
23160;DHT22;11748;50.844;4.396;2022-11-14T09:37:31;9.60;99.90
23160;DHT22;11748;50.844;4.396;2022-11-14T09:39:57;9.40;99.90
23160;DHT22;11748;50.844;4.396;2022-11-14T09:45:12;9.40;99.90
23160;DHT22;11748;50.844;4.396;2022-11-14T09:47:40;9.40;99.90
23160;DHT22;11748;50.844;4.396;2022-11-14T09:50:17;9.50;99.90
23160;DHT22;11748;50.844;4.396;2022-11-14T09:52:56;9.60;99.90
23160;DHT22;11748;50.844;4.396;2022-11-14T09:55:28;9.60;99.90
23160;DHT22;11748;50.844;4.396;2022-11-14T09:57:54;9.60;99.90
23160;DHT22;11748;50.844;4.396;2022-11-14T10:00:23;9.60;99.90
23160;DHT22;11748;50.844;4.396;2022-11-14T10:03:02;9.80;99.90
23160;DHT22;11748;50.844;4.396;2022-11-14T10:16:25;10.20;99.90
23160;DHT22;11748;50.844;4.396;2022-11-14T10:22:01;10.30;99.90
23160;DHT22;11748;50.844;4.396;2022-11-14T10:27:26;10.40;99.90
23160;DHT22;11748;50.844;4.396;2022-11-14T10:35:17;10.40;99.90
23160;DHT22;11748;50.844;4.396;2022-11-14T10:38:06;10.40;99.90
23160;DHT22;11748;50.844;4.396;2022-11-14T10:40:44;10.50;99.90
23160;DHT22;11748;50.844;4.396;2022-11-14T10:43:46;10.60;99.90
23160;DHT22;11748;50.844;4.396;2022-11-14T10:48:58;10.60;99.90
23160;DHT22;11748;50.844;4.396;2022-11-14T10:51:28;10.30;99.90
23160;DHT22;11748;50.844;4.396;2022-11-14T10:54:13;10.40;99.90
23160;DHT22;11748;50.844;4.396;2022-11-14T10:56:51;10.50;99.90
23160;DHT22;11748;50.844;4.396;2022-11-14T10:59:17;10.40;99.90
23160;DHT22;11748;50.844;4.396;2022-11-14T11:01:45;10.50;99.90
23160;DHT22;11748;50.844;4.396;2022-11-14T11:04:30;10.50;99.90
23160;DHT22;11748;50.844;4.396;2022-11-14T11:07:24;10.60;99.90
23160;DHT22;11748;50.844;4.396;2022-11-14T11:10:23;10.70;99.90
23160;DHT22;11748;50.844;4.396;2022-11-14T11:13:12;10.60;99.90
23160;DHT22;11748;50.844;4.396;2022-11-14T11:15:40;10.60;99.90
23160;DHT22;11748;50.844;4.396;2022-11-14T11:18:28;10.40;99.90
23160;DHT22;11748;50.844;4.396;2022-11-14T11:21:09;10.30;99.90
23160;DHT22;11748;50.844;4.396;2022-11-14T11:23:53;10.50;99.90
23160;DHT22;11748;50.844;4.396;2022-11-14T11:26:24;10.60;99.90
23160;DHT22;11748;50.844;4.396;2022-11-14T11:29:06;9.80;99.90
23160;DHT22;11748;50.844;4.396;2022-11-14T11:31:52;9.40;99.90
23160;DHT22;11748;50.844;4.396;2022-11-14T11:34:22;9.20;99.90
23160;DHT22;11748;50.844;4.396;2022-11-14T11:39:39;9.40;99.90
23160;DHT22;11748;50.844;4.396;2022-11-14T11:42:08;9.70;99.90
23160;DHT22;11748;50.844;4.396;2022-11-14T11:44:42;10.00;99.90
23160;DHT22;11748;50.844;4.396;2022-11-14T11:47:12;10.10;99.90
23160;DHT22;11748;50.844;4.396;2022-11-14T11:49:44;10.10;99.90
23160;DHT22;11748;50.844;4.396;2022-11-14T11:52:26;9.80;99.90
23160;DHT22;11748;50.844;4.396;2022-11-14T11:55:17;9.90;99.90
23160;DHT22;11748;50.844;4.396;2022-11-14T11:57:47;10.00;99.90
23160;DHT22;11748;50.844;4.396;2022-11-14T12:00:18;10.00;99.90
23160;DHT22;11748;50.844;4.396;2022-11-14T12:02:49;9.90;99.90
23160;DHT22;11748;50.844;4.396;2022-11-14T12:10:25;9.60;99.90
23160;DHT22;11748;50.844;4.396;2022-11-14T12:19:31;9.60;99.90
23160;DHT22;11748;50.844;4.396;2022-11-14T12:27:59;9.20;99.90
23160;DHT22;11748;50.844;4.396;2022-11-14T12:30:29;9.20;99.90
23160;DHT22;11748;50.844;4.396;2022-11-14T12:33:19;9.40;99.90
23160;DHT22;11748;50.844;4.396;2022-11-14T12:35:51;9.40;99.90
23160;DHT22;11748;50.844;4.396;2022-11-14T12:38:18;9.20;99.90
23160;DHT22;11748;50.844;4.396;2022-11-14T12:40:56;9.10;99.90
23160;DHT22;11748;50.844;4.396;2022-11-14T12:45:58;9.40;99.90
23160;DHT22;11748;50.844;4.396;2022-11-14T12:50:51;9.80;99.90
23160;DHT22;11748;50.844;4.396;2022-11-14T13:04:57;10.10;99.90
23160;DHT22;11748;50.844;4.396;2022-11-14T13:10:23;10.10;99.90
23160;DHT22;11748;50.844;4.396;2022-11-14T13:13:15;10.10;99.90
23160;DHT22;11748;50.844;4.396;2022-11-14T13:16:01;10.10;99.90
23160;DHT22;11748;50.844;4.396;2022-11-14T13:18:56;10.10;99.90
23160;DHT22;11748;50.844;4.396;2022-11-14T13:22:18;10.10;99.90
23160;DHT22;11748;50.844;4.396;2022-11-14T13:27:33;9.90;99.90
23160;DHT22;11748;50.844;4.396;2022-11-14T13:30:00;10.00;99.90
23160;DHT22;11748;50.844;4.396;2022-11-14T13:35:39;9.90;99.90
23160;DHT22;11748;50.844;4.396;2022-11-14T13:41:24;9.80;99.90
23160;DHT22;11748;50.844;4.396;2022-11-14T13:44:12;9.80;99.90
23160;DHT22;11748;50.844;4.396;2022-11-14T13:46:49;9.90;99.90
23160;DHT22;11748;50.844;4.396;2022-11-14T13:52:17;9.90;99.90
23160;DHT22;11748;50.844;4.396;2022-11-14T13:54:47;9.90;99.90
23160;DHT22;11748;50.844;4.396;2022-11-14T14:00:09;9.80;99.90
23160;DHT22;11748;50.844;4.396;2022-11-14T14:03:14;9.80;99.90
23160;DHT22;11748;50.844;4.396;2022-11-14T14:14:21;10.00;99.90
23160;DHT22;11748;50.844;4.396;2022-11-14T14:16:56;10.10;99.90
23160;DHT22;11748;50.844;4.396;2022-11-14T14:22:10;10.10;99.90
23160;DHT22;11748;50.844;4.396;2022-11-14T14:30:15;10.10;99.90
23160;DHT22;11748;50.844;4.396;2022-11-14T14:32:43;10.10;99.90
23160;DHT22;11748;50.844;4.396;2022-11-14T14:35:31;10.00;99.90
23160;DHT22;11748;50.844;4.396;2022-11-14T14:37:57;10.10;99.90
23160;DHT22;11748;50.844;4.396;2022-11-14T14:40:30;10.10;99.90
23160;DHT22;11748;50.844;4.396;2022-11-14T14:42:58;9.90;99.90
23160;DHT22;11748;50.844;4.396;2022-11-14T14:45:26;10.00;99.90
23160;DHT22;11748;50.844;4.396;2022-11-14T14:48:05;9.80;99.90
23160;DHT22;11748;50.844;4.396;2022-11-14T14:50:49;9.80;99.90
23160;DHT22;11748;50.844;4.396;2022-11-14T14:53:19;9.80;99.90
23160;DHT22;11748;50.844;4.396;2022-11-14T14:58:27;9.70;99.90
23160;DHT22;11748;50.844;4.396;2022-11-14T15:01:04;9.80;99.90
23160;DHT22;11748;50.844;4.396;2022-11-14T15:03:35;9.90;99.90
23160;DHT22;11748;50.844;4.396;2022-11-14T15:06:04;10.00;99.90
23160;DHT22;11748;50.844;4.396;2022-11-14T15:08:34;10.00;99.90
23160;DHT22;11748;50.844;4.396;2022-11-14T15:11:02;10.10;99.90
23160;DHT22;11748;50.844;4.396;2022-11-14T15:13:29;10.20;99.90
23160;DHT22;11748;50.844;4.396;2022-11-14T15:15:56;10.10;99.90
23160;DHT22;11748;50.844;4.396;2022-11-14T15:18:25;10.10;99.90
23160;DHT22;11748;50.844;4.396;2022-11-14T15:21:22;10.20;99.90
23160;DHT22;11748;50.844;4.396;2022-11-14T15:24:02;10.10;99.90
23160;DHT22;11748;50.844;4.396;2022-11-14T15:26:29;10.10;99.90
23160;DHT22;11748;50.844;4.396;2022-11-14T15:29:06;10.10;99.90
23160;DHT22;11748;50.844;4.396;2022-11-14T15:31:33;10.00;99.90
23160;DHT22;11748;50.844;4.396;2022-11-14T15:34:04;9.90;99.90
23160;DHT22;11748;50.844;4.396;2022-11-14T15:36:31;10.00;99.90
23160;DHT22;11748;50.844;4.396;2022-11-14T15:39:19;10.00;99.90
23160;DHT22;11748;50.844;4.396;2022-11-14T15:41:47;10.00;99.90
23160;DHT22;11748;50.844;4.396;2022-11-14T15:44:29;9.80;99.90
23160;DHT22;11748;50.844;4.396;2022-11-14T15:46:55;9.80;99.90
23160;DHT22;11748;50.844;4.396;2022-11-14T15:49:25;9.70;99.90
23160;DHT22;11748;50.844;4.396;2022-11-14T15:52:00;9.70;99.90
23160;DHT22;11748;50.844;4.396;2022-11-14T15:54:32;9.70;99.90
23160;DHT22;11748;50.844;4.396;2022-11-14T15:57:00;9.80;99.90
23160;DHT22;11748;50.844;4.396;2022-11-14T15:59:28;9.80;99.90
23160;DHT22;11748;50.844;4.396;2022-11-14T16:02:09;9.80;99.90
23160;DHT22;11748;50.844;4.396;2022-11-14T16:04:36;9.80;99.90
23160;DHT22;11748;50.844;4.396;2022-11-14T16:07:03;9.90;99.90
23160;DHT22;11748;50.844;4.396;2022-11-14T16:09:29;9.90;99.90
23160;DHT22;11748;50.844;4.396;2022-11-14T16:11:55;9.80;99.90
23160;DHT22;11748;50.844;4.396;2022-11-14T16:14:22;9.80;99.90
23160;DHT22;11748;50.844;4.396;2022-11-14T16:16:48;9.90;99.90
23160;DHT22;11748;50.844;4.396;2022-11-14T16:19:14;9.90;99.90
23160;DHT22;11748;50.844;4.396;2022-11-14T16:21:41;9.90;99.90
23160;DHT22;11748;50.844;4.396;2022-11-14T16:24:25;9.90;99.90
23160;DHT22;11748;50.844;4.396;2022-11-14T16:26:51;9.90;99.90
23160;DHT22;11748;50.844;4.396;2022-11-14T16:29:16;10.00;99.90
23160;DHT22;11748;50.844;4.396;2022-11-14T16:31:42;9.70;99.90
23160;DHT22;11748;50.844;4.396;2022-11-14T16:34:15;9.70;99.90
23160;DHT22;11748;50.844;4.396;2022-11-14T16:36:43;9.80;99.90
23160;DHT22;11748;50.844;4.396;2022-11-14T16:39:10;9.80;99.90
23160;DHT22;11748;50.844;4.396;2022-11-14T16:41:38;9.80;99.90
23160;DHT22;11748;50.844;4.396;2022-11-14T16:44:04;9.90;99.90
23160;DHT22;11748;50.844;4.396;2022-11-14T16:46:30;9.90;99.90
23160;DHT22;11748;50.844;4.396;2022-11-14T16:48:56;9.80;99.90
23160;DHT22;11748;50.844;4.396;2022-11-14T16:51:22;9.80;99.90
23160;DHT22;11748;50.844;4.396;2022-11-14T16:53:54;9.80;99.90
23160;DHT22;11748;50.844;4.396;2022-11-14T16:56:20;9.80;99.90
23160;DHT22;11748;50.844;4.396;2022-11-14T16:58:46;9.90;99.90
23160;DHT22;11748;50.844;4.396;2022-11-14T17:01:13;9.90;99.90
23160;DHT22;11748;50.844;4.396;2022-11-14T17:03:42;9.90;99.90
23160;DHT22;11748;50.844;4.396;2022-11-14T17:06:08;9.80;99.90
23160;DHT22;11748;50.844;4.396;2022-11-14T17:08:37;9.90;99.90
23160;DHT22;11748;50.844;4.396;2022-11-14T17:11:08;9.90;99.90
23160;DHT22;11748;50.844;4.396;2022-11-14T17:13:35;10.00;99.90
23160;DHT22;11748;50.844;4.396;2022-11-14T17:16:01;9.90;99.90
23160;DHT22;11748;50.844;4.396;2022-11-14T17:18:27;9.80;99.90
23160;DHT22;11748;50.844;4.396;2022-11-14T17:20:53;9.80;99.90
23160;DHT22;11748;50.844;4.396;2022-11-14T17:23:19;9.50;99.90
23160;DHT22;11748;50.844;4.396;2022-11-14T17:25:44;9.60;99.90
23160;DHT22;11748;50.844;4.396;2022-11-14T17:28:10;9.70;99.90
23160;DHT22;11748;50.844;4.396;2022-11-14T17:30:42;9.80;99.90
23160;DHT22;11748;50.844;4.396;2022-11-14T17:33:08;9.90;99.90
23160;DHT22;11748;50.844;4.396;2022-11-14T17:35:37;9.90;99.90
23160;DHT22;11748;50.844;4.396;2022-11-14T17:38:03;9.90;99.90
23160;DHT22;11748;50.844;4.396;2022-11-14T17:40:29;9.90;99.90
23160;DHT22;11748;50.844;4.396;2022-11-14T17:42:55;9.90;99.90